Map

Track Data

SID SEASON NUMBER BASIN SUBBASIN NAME ISO_TIME NATURE LAT LON WMO_WIND WMO_PRES WMO_AGENCY TRACK_TYPE DIST2LAND LANDFALL IFLAG USA_AGENCY USA_ATCF_ID USA_LAT USA_LON USA_RECORD USA_STATUS USA_WIND USA_PRES USA_SSHS USA_R34_NE USA_R34_SE USA_R34_SW USA_R34_NW USA_R50_NE USA_R50_SE USA_R50_SW USA_R50_NW USA_R64_NE USA_R64_SE USA_R64_SW USA_R64_NW USA_POCI USA_ROCI USA_RMW USA_EYE TOKYO_LAT TOKYO_LON TOKYO_GRADE TOKYO_WIND TOKYO_PRES TOKYO_R50_DIR TOKYO_R50_LONG TOKYO_R50_SHORT TOKYO_R30_DIR TOKYO_R30_LONG TOKYO_R30_SHORT TOKYO_LAND CMA_LAT CMA_LON CMA_CAT CMA_WIND CMA_PRES HKO_LAT HKO_LON HKO_CAT HKO_WIND HKO_PRES NEWDELHI_LAT NEWDELHI_LON NEWDELHI_GRADE NEWDELHI_WIND NEWDELHI_PRES NEWDELHI_CI NEWDELHI_DP NEWDELHI_POCI REUNION_LAT REUNION_LON REUNION_TYPE REUNION_WIND REUNION_PRES REUNION_TNUM REUNION_CI REUNION_RMW REUNION_R34_NE REUNION_R34_SE REUNION_R34_SW REUNION_R34_NW REUNION_R50_NE REUNION_R50_SE REUNION_R50_SW REUNION_R50_NW REUNION_R64_NE REUNION_R64_SE REUNION_R64_SW REUNION_R64_NW BOM_LAT BOM_LON BOM_TYPE BOM_WIND BOM_PRES BOM_TNUM BOM_CI BOM_RMW BOM_R34_NE BOM_R34_SE BOM_R34_SW BOM_R34_NW BOM_R50_NE BOM_R50_SE BOM_R50_SW BOM_R50_NW BOM_R64_NE BOM_R64_SE BOM_R64_SW BOM_R64_NW BOM_ROCI BOM_POCI BOM_EYE BOM_POS_METHOD BOM_PRES_METHOD NADI_LAT NADI_LON NADI_CAT NADI_WIND NADI_PRES WELLINGTON_LAT WELLINGTON_LON WELLINGTON_WIND WELLINGTON_PRES DS824_LAT DS824_LON DS824_STAGE DS824_WIND DS824_PRES TD9636_LAT TD9636_LON TD9636_STAGE TD9636_WIND TD9636_PRES TD9635_LAT TD9635_LON TD9635_WIND TD9635_PRES TD9635_ROCI NEUMANN_LAT NEUMANN_LON NEUMANN_CLASS NEUMANN_WIND NEUMANN_PRES MLC_LAT MLC_LON MLC_CLASS MLC_WIND MLC_PRES USA_GUST BOM_GUST BOM_GUST_PER REUNION_GUST REUNION_GUST_PER USA_SEAHGT USA_SEARAD_NE USA_SEARAD_SE USA_SEARAD_SW USA_SEARAD_NW STORM_SPEED STORM_DIR
1973335S15161 1974 129 SP MM LOTTIE:NATALIE 1973-11-30 23:00:00 NR -15.0000 161.000 main 478 478 ______O_______ -1 -15.0000 161.000 30 35 995 2.50000 49 49 13 267
1973335S15161 1974 129 SP MM LOTTIE:NATALIE 1973-12-01 00:00:00 TS -15.0097 160.777 main 482 482 O_____P___O_O_ jtwc_sh SH081974 -15.0000 160.600 -1 -15.0292 160.831 30 35 995 -15.0000 160.600 2 -15.0000 161.200 TC 40 995 9 252
1973335S15161 1974 129 SP MM LOTTIE:NATALIE 1973-12-01 03:00:00 TS -15.1906 160.386 main 515 515 P_____P___P_P_ SH081974 -15.2551 160.308 -1 -15.1236 160.328 30 35 995 -15.2628 160.324 2 -15.0902 160.695 TC 40 995 8 244
1973335S15161 1974 129 SP MM LOTTIE:NATALIE 1973-12-01 05:00:00 TS -15.3181 160.132 35 995 bom main 536 536 P_____O___P_P_ SH081974 -15.4201 160.105 -1 -15.2000 160.000 30 35 995 2.50000 -15.4305 160.129 2 -15.1599 160.363 TC 40 995 49 49 8 242
1973335S15161 1974 129 SP MM LOTTIE:NATALIE 1973-12-01 06:00:00 TS -15.3865 160.003 main 550 550 O_____P__OP_O_ jtwc_sh SH081974 -15.5000 160.000 -1 -15.2447 159.839 30 35 995 -15.3000 159.800 TC 40 995 -15.5104 160.027 2 -15.2000 160.200 TC 40 995 9 243
1973335S15161 1974 129 SP EA LOTTIE:NATALIE 1973-12-01 09:00:00 TS -15.5821 159.605 main 587 587 P_____P__PP_P_ SH081974 -15.7224 159.665 -1 -15.4242 159.379 30 35 995 -15.5004 159.400 TC 40 995 -15.7279 159.693 2 -15.3549 159.727 TC 40 995 9 243
1973335S15161 1974 129 SP EA LOTTIE:NATALIE 1973-12-01 11:00:00 TS -15.7171 159.335 35 995 bom main 611 611 P_____O__PP_P_ SH081974 -15.8473 159.425 -1 -15.6000 159.100 30 35 995 2.50000 -15.6335 159.134 TC 40 995 -15.8486 159.438 2 -15.5052 159.436 TC 40 995 49 49 9 243
1973335S15161 1974 129 SP EA LOTTIE:NATALIE 1973-12-01 12:00:00 TS -15.7838 159.194 main 626 626 O_____P__OO_O_ jtwc_sh SH081974 -15.9000 159.300 -1 -15.7026 158.964 30 33 995 -15.7000 159.000 TC 40 995 -15.9000 159.300 2 -15.6000 159.300 TC 40 995 9 237
1973335S15161 1974 129 SP EA LOTTIE:NATALIE 1973-12-01 15:00:00 TS -16.0415 158.816 main 666 666 P_____P__PP_P_ SH081974 -16.0374 158.923 -1 -16.0879 158.599 30 28 997 -16.1503 158.651 TC 35 997 -16.0142 158.842 2 -15.9475 158.913 TC 35 997 9 235
1973335S15161 1974 129 SP EA LOTTIE:NATALIE 1973-12-01 17:00:00 TS -16.2002 158.567 25 999 bom main 696 696 P_____O__PP_P_ SH081974 -16.0890 158.647 -1 -16.4000 158.400 20 25 999 2.00000 -16.4502 158.417 TC 31 998 -16.0570 158.519 2 -16.2390 158.694 TC 31 998 45 45 8 239
1973335S15161 1974 129 SP EA LOTTIE:NATALIE 1973-12-01 18:00:00 TS -16.2496 158.455 main 702 702 O_____P__OP_O_ jtwc_sh SH081974 -16.1000 158.500 -1 -16.5698 158.316 20 25 999 -16.6000 158.300 TC 30 999 -16.0684 158.357 2 -16.4000 158.600 TC 30 999 7 237
1973335S15161 1974 129 SP EA LOTTIE:NATALIE 1973-12-01 21:00:00 TS -16.4546 158.160 main 745 745 P_____P___P_P_ SH081974 -16.1009 158.150 -1 -17.1175 158.114 20 25 1002 TC -16.0632 157.893 2 -17.1223 158.401 TC 25 1002 7 243
1973335S15161 1974 129 SP EA LOTTIE:NATALIE 1973-12-01 23:00:00 TS -16.5171 157.903 25 1005 bom main 764 764 P_____O___P_P_ SH081974 -16.0463 157.775 -1 -17.5000 158.000 20 25 1005 1.50000 TC -16.0274 157.620 2 -17.4571 158.276 TC 21 1004 45 45 9 269
1973335S15161 1974 129 SP EA LOTTIE:NATALIE 1973-12-02 00:00:00 TS -16.4615 157.715 main 776 772 O_________O_O_ jtwc_sh SH081974 -16.0000 157.500 -1 20 -16.0000 157.500 2 -17.5000 158.200 TC 20 1005 17 290
1973335S15161 1974 129 SP EA LOTTIE:NATALIE 1973-12-02 03:00:00 TS -16.1390 156.808 main 776 776 P_________P_P_ SH081974 -15.7817 156.204 -1 20 -15.8139 157.350 2 -16.8536 158.014 TC 20 22 292
1973335S15161 1974 129 SP EA LOTTIE:NATALIE 1973-12-02 06:00:00 TS -15.6667 155.633 main 779 664 O_________P_O_ jtwc_sh SH081974 -15.5000 154.700 -1 -15.5330 157.339 2 -16.0000 157.500 TC 20 26 286
1973335S15161 1974 129 SP EA LOTTIE:NATALIE 1973-12-02 09:00:00 TS -15.4306 154.182 main 657 582 P_________P_P_ SH081974 -15.2504 153.102 -1 -15.1787 157.442 2 -15.7911 156.344 TC 20 24 280
1973335S15161 1974 129 SP EA LOTTIE:NATALIE 1973-12-02 12:00:00 TS -15.2333 153.167 main 582 557 O_________P_O_ jtwc_sh SH081974 -15.0000 152.300 -1 -14.7720 157.631 2 -15.7000 154.900 TC 20 11 296
1973335S15161 1974 129 SP EA LOTTIE:NATALIE 1973-12-02 15:00:00 TS -14.9557 153.187 main 562 552 P_________P_P_ SH081974 -14.7577 153.139 -1 -14.3342 157.879 2 -15.3516 153.284 TC 20 10 54
1973335S15161 1974 129 SP EA LOTTIE:NATALIE 1973-12-02 18:00:00 TS -14.6667 153.967 main 582 580 O_________P_O_ jtwc_sh SH081974 -14.5000 154.800 -1 -13.8866 158.161 2 -15.0000 152.300 TC 20 20 75
1973335S15161 1974 129 SP EA LOTTIE:NATALIE 1973-12-02 21:00:00 TS -14.4396 155.182 main 648 609 P_________P_P_ SH081974 -14.2322 156.470 -1 -13.4505 158.449 2 -14.8543 152.605 TC 20 26 79
1973335S15161 1974 129 SP EA LOTTIE:NATALIE 1973-12-03 00:00:00 TS -14.1667 156.567 main 603 507 O_________P_O_ jtwc_sh SH081974 -13.9000 157.900 -1 -13.0476 158.719 2 -14.7000 153.900 TC 20 25 74
1973335S15161 1974 129 SP EA LOTTIE:NATALIE 1973-12-03 03:00:00 TS -13.7643 157.688 main 502 416 P_________P_P_ SH081974 -13.4634 158.559 -1 -12.6995 158.944 2 -14.3662 155.947 TC 17 21 65
1973335S15161 1974 129 SP EA LOTTIE:NATALIE 1973-12-03 06:00:00 TS -13.2681 158.514 main 416 350 O_________P_O_ jtwc_sh SH081974 -13.0000 158.800 -1 -12.4278 159.100 2 -13.9000 157.900 TC 15 16 50
1973335S15161 1974 129 SP EA LOTTIE:NATALIE 1973-12-03 09:00:00 TS -12.7374 158.955 main 336 301 P_________P_P_ SH081974 -12.5098 159.085 -1 -12.2541 159.160 2 -13.3324 158.684 TC 15 11 30
1973335S15161 1974 129 SP EA LOTTIE:NATALIE 1973-12-03 12:00:00 TS -12.3600 159.047 main 304 293 O_________O_O_ jtwc_sh SH081974 -12.2000 159.100 -1 -12.2000 159.100 6 -12.8000 158.900 TC 15 5 346
1973335S15161 1974 129 SP EA LOTTIE:NATALIE 1973-12-03 15:00:00 TS -12.2897 158.839 main 300 300 P_________P_P_ SH081974 -12.2528 158.703 -1 -12.3934 158.650 6 -12.3797 159.150 TC 15 6 263
1973335S15161 1974 129 SP EA LOTTIE:NATALIE 1973-12-03 18:00:00 TS -12.4276 158.463 main 323 323 O_________P_O_ jtwc_sh SH081974 -12.5000 158.200 -1 -12.6353 158.196 6 -12.2000 159.100 TC 15 9 242
1973335S15161 1974 129 SP EA LOTTIE:NATALIE 1973-12-03 21:00:00 TS -12.6910 158.069 main 374 374 P_________P_P_ SH081974 -12.7947 157.843 -1 -12.8594 157.868 6 -12.3829 158.638 TC 15 8 229
1973335S15161 1974 129 SP EA LOTTIE:NATALIE 1973-12-04 00:00:00 TS -12.9250 157.875 main 404 393 O_________O_O_ jtwc_sh SH081974 -13.0000 157.800 -1 -13.0000 157.800 4 -12.7000 158.100 TC 15 2 166
1973335S15161 1974 129 SP EA LOTTIE:NATALIE 1973-12-04 03:00:00 TS -12.9182 158.121 main 393 360 P_________P_P_ SH081974 -12.9027 158.273 -1 -12.9652 158.160 4 -12.9021 157.777 TC 15 8 81
1973335S15161 1974 129 SP EA LOTTIE:NATALIE 1973-12-04 06:00:00 TS -12.8104 158.645 main 360 329 O_________P_O_ jtwc_sh SH081974 -12.7000 159.000 -1 -12.8415 158.781 4 -13.0000 157.800 TC 15 12 79
1973335S15161 1974 129 SP EA LOTTIE:NATALIE 1973-12-04 09:00:00 TS -12.7005 159.297 main 329 277 P_________P_P_ SH081974 -12.5925 159.657 -1 -12.6717 159.536 4 -12.9454 158.338 TC 15 13 80
1973335S15161 1974 129 SP MM LOTTIE:NATALIE 1973-12-04 12:00:00 TS -12.5750 160.000 main 277 237 O_________O_O_ jtwc_sh SH081974 -12.5000 160.300 -1 -12.5000 160.300 4 -12.8000 159.100 TC 15 12 78
1973335S15161 1974 129 SP MM LOTTIE:NATALIE 1973-12-04 15:00:00 TS -12.4457 160.539 main 228 184 P_________P_P_ SH081974 -12.3997 160.857 -1 -12.3797 160.861 4 -12.6035 159.581 TC 15 11 78
1973335S15161 1974 129 SP MM LOTTIE:NATALIE 1973-12-04 18:00:00 TS -12.3422 161.128 main 184 167 O_________P_O_ jtwc_sh SH081974 -12.3000 161.400 -1 -12.2686 161.413 4 -12.5000 160.300 TC 15 14 84
1973335S15161 1974 129 SP MM LOTTIE:NATALIE 1973-12-04 21:00:00 TS -12.3113 161.918 main 167 167 P_________P_P_ SH081974 -12.1923 161.970 -1 -12.1733 161.983 4 -12.6876 161.749 TC 15 16 90
1973335S15161 1974 129 SP MM LOTTIE:NATALIE 1973-12-05 00:00:00 TS -12.3353 162.776 30 997 wellington main 176 176 O_______O_O_O_ jtwc_sh SH081974 -12.1000 162.600 -1 -12.9000 163.200 30 997 -12.1000 162.600 4 -12.9000 163.200 TC 15 16 90
1973335S15161 1974 129 SP MM LOTTIE:NATALIE 1973-12-05 03:00:00 TS -12.3208 163.502 main 212 212 P_______P_P_P_ SH081974 -12.0350 163.328 -1 -12.8614 163.750 30 997 -12.0493 163.296 4 -12.8936 163.935 TC 15 14 89
1973335S15161 1974 129 SP MM LOTTIE:NATALIE 1973-12-05 06:00:00 TS -12.3002 164.184 main 266 266 O_______P_P_O_ jtwc_sh SH081974 -12.0000 164.100 -1 -12.8079 164.309 30 997 -12.0199 164.040 4 -12.8000 164.400 TC 15 13 89
1973335S15161 1974 129 SP MM LOTTIE:NATALIE 1973-12-05 09:00:00 TS -12.2860 164.865 main 325 298 P_______P_P_P_ SH081974 -11.9922 164.835 -1 -12.7254 164.890 30 997 -12.0054 164.814 4 -12.7148 164.950 TC 15 13 87
1973335S15161 1974 129 SP MM LOTTIE:NATALIE 1973-12-05 12:00:00 TS -12.2400 165.560 30 997 wellington main 300 281 O_______O_O_O_ jtwc_sh SH081974 -12.0000 165.600 -1 -12.6000 165.500 30 997 -12.0000 165.600 4 -12.6000 165.500 TC 15 14 85
1973335S15161 1974 129 SP MM LOTTIE:NATALIE 1973-12-05 15:00:00 TS -12.1724 166.319 main 281 280 P_______P_P_P_ SH081974 -12.0001 166.458 -1 -12.4271 166.144 30 997 -11.9773 166.453 4 -12.4574 166.085 TC 15 15 85
1973335S15161 1974 129 SP MM LOTTIE:NATALIE 1973-12-05 18:00:00 TS -12.1008 167.079 main 296 296 O_______P_P_O_ jtwc_sh SH081974 -12.0000 167.300 -1 -12.2404 166.796 30 997 -11.9637 167.300 4 -12.3000 166.700 TC 15 15 84
1973335S15161 1974 129 SP MM LOTTIE:NATALIE 1973-12-05 21:00:00 TS -12.0313 167.807 main 329 329 P_______P_P_P_ SH081974 -11.9925 168.082 -1 -12.0834 167.425 30 997 -11.9681 168.072 4 -12.1201 167.373 TC 15 13 86
1973335S15161 1974 129 SP MM LOTTIE:NATALIE 1973-12-06 00:00:00 TS -12.0000 168.420 30 997 wellington main 359 359 O_______O_O_O_ jtwc_sh SH081974 -12.0000 168.700 -1 -12.0000 168.000 30 997 -12.0000 168.700 4 -12.0000 168.000 TC 15 10 90
1973335S15161 1974 129 SP MM LOTTIE:NATALIE 1973-12-06 03:00:00 TS -12.0228 168.845 main 382 382 P_______P_P_P_ SH081974 -12.0272 169.075 -1 -12.0047 168.490 30 997 -12.0577 169.097 4 -11.9973 168.487 TC 15 7 99
1973335S15161 1974 129 SP MM LOTTIE:NATALIE 1973-12-06 06:00:00 TS -12.1075 169.155 main 396 393 O_______P_P_O_ jtwc_sh SH081974 -12.1000 169.300 -1 -12.0918 168.925 30 997 -12.1459 169.350 4 -12.1000 168.900 TC 15 6 111
1973335S15161 1974 129 SP MM LOTTIE:NATALIE 1973-12-06 09:00:00 TS -12.2488 169.435 main 400 391 P_______P_P_P_ SH081974 -12.2349 169.508 -1 -12.2580 169.322 30 997 -12.2612 169.528 4 -12.2549 169.308 TC 15 6 122
1973335S15161 1974 129 SP MM LOTTIE:NATALIE 1973-12-06 12:00:00 TS -12.4400 169.700 30 997 wellington main 404 396 O_______O_O_O_ jtwc_sh SH081974 -12.4000 169.700 -1 -12.5000 169.700 30 997 -12.4000 169.700 4 -12.5000 169.700 TC 15 7 125
1973335S15161 1974 129 SP MM LOTTIE:NATALIE 1973-12-06 15:00:00 TS -12.6466 170.009 main 412 405 P_______P_P_P_ SH081974 -12.5425 169.935 -1 -12.8030 170.105 30 997 -12.5249 169.964 4 -12.8200 170.108 TC 17 8 126
1973335S15161 1974 129 SP MM LOTTIE:NATALIE 1973-12-06 18:00:00 TS -12.8900 170.326 main 417 417 O_______P_P_O_ jtwc_sh SH081974 -12.7000 170.200 -1 -13.1749 170.495 30 997 -12.6749 170.235 4 -13.2000 170.500 TC 20 8 130
1973335S15161 1974 129 SP MM LOTTIE:NATALIE 1973-12-06 21:00:00 TS -13.1603 170.645 main 428 428 P_______P_P_P_ SH081974 -12.8775 170.493 -1 -13.5843 170.862 30 997 -12.8624 170.514 4 -13.5999 170.865 TC 20 8 133
1973335S15161 1974 129 SP MM LOTTIE:NATALIE 1973-12-07 00:00:00 TS -13.4600 170.960 30 997 wellington main 452 452 O_______O_O_O_ jtwc_sh SH081974 -13.1000 170.800 -1 -14.0000 171.200 30 997 -13.1000 170.800 4 -14.0000 171.200 TC 20 9 136
1973335S15161 1974 129 SP MM LOTTIE:NATALIE 1973-12-07 03:00:00 TS -13.7704 171.258 main 468 462 P_______P_P_P_ SH081974 -13.3700 171.100 -1 -14.3788 171.508 32 995 -13.3832 171.069 4 -14.3500 171.515 TC 20 9 139
1973335S15161 1974 129 SP MM LOTTIE:NATALIE 1973-12-07 06:00:00 TS -14.1149 171.547 main 467 467 O_______P_P_O_ jtwc_sh SH081974 -13.7000 171.400 -1 -14.7572 171.788 35 993 -13.7171 171.348 4 -14.7000 171.800 TC 20 9 143
1973335S15161 1974 129 SP MM LOTTIE:NATALIE 1973-12-07 09:00:00 TS -14.4928 171.823 main 473 473 P_______P_P_P_ SH081974 -14.0699 171.678 -1 -15.1320 172.049 37 991 -14.0925 171.654 4 -15.0999 172.058 TC 22 10 145
1973335S15161 1974 129 SP MM LOTTIE:NATALIE 1973-12-07 12:00:00 TS -14.9000 172.120 40 990 wellington main 486 486 O_______O_O_O_ jtwc_sh SH081974 -14.5000 172.000 -1 -15.5000 172.300 40 990 -14.5000 172.000 4 -15.5000 172.300 TC 25 11 143
1973335S15161 1974 129 SP MM LOTTIE:NATALIE 1973-12-07 15:00:00 TS -15.3354 172.477 main 515 512 P_______P_P_P_ SH081974 -15.0000 172.427 -1 -15.8690 172.533 40 990 -14.9502 172.446 4 -15.8575 172.550 TC 25 11 141
1973335S15161 1974 129 SP MM LOTTIE:NATALIE 1973-12-07 18:00:00 TS -15.7706 172.858 main 519 470 O_______P_P_O_ jtwc_sh SH081974 -15.5000 172.900 -1 -16.2294 172.763 40 990 -15.4233 172.928 4 -16.2000 172.800 TC 25 11 139
1973335S15161 1974 129 SP MM LOTTIE:NATALIE 1973-12-07 21:00:00 TS -16.1785 173.244 main 470 417 P_______P_P_P_ SH081974 -15.9376 173.387 -1 -16.5752 173.012 40 990 -15.8847 173.396 4 -16.5574 173.035 TC 27 11 137
1973335S15161 1974 129 SP MM LOTTIE:NATALIE 1973-12-08 00:00:00 TS -16.5400 173.600 40 990 wellington main 417 375 O_______O_O_O_ jtwc_sh SH081974 -16.3000 173.800 -1 -16.9000 173.300 40 990 -16.3000 173.800 4 -16.9000 173.300 TC 30 9 137
1973335S15161 1974 129 SP MM LOTTIE:NATALIE 1973-12-08 03:00:00 TS -16.8356 173.879 main 375 343 P_______P_P_P_ SH081974 -16.5648 174.038 -1 -17.2089 173.657 40 990 -16.6244 174.041 4 -17.2149 173.620 TC 30 8 138
1973335S15161 1974 129 SP MM LOTTIE:NATALIE 1973-12-08 06:00:00 TS -17.0993 174.134 main 343 304 O_______P_P_O_ jtwc_sh SH081974 -16.8000 174.200 -1 -17.4951 174.055 40 990 -16.9013 174.217 4 -17.5000 174.000 TC 30 7 137
1973335S15161 1974 129 SP MM LOTTIE:NATALIE 1973-12-08 09:00:00 TS -17.3737 174.412 main 304 268 P_______P_P_P_ SH081974 -17.0999 174.378 -1 -17.7588 174.476 40 990 -17.1526 174.384 4 -17.7575 174.443 TC 30 8 134
1973335S15161 1974 129 SP MM LOTTIE:NATALIE 1973-12-08 12:00:00 TS -17.6400 174.720 40 990 wellington main 268 233 O_______O_O_O_ jtwc_sh SH081974 -17.4000 174.600 -1 -18.0000 174.900 40 990 -17.4000 174.600 4 -18.0000 174.900 TC 30 8 130
1973335S15161 1974 129 SP MM LOTTIE:NATALIE 1973-12-08 15:00:00 TS -17.8994 175.065 main 222 190 P_______P_P_P_ SH081974 -17.6500 174.913 -1 -18.2413 175.280 43 987 -17.6909 174.910 4 -18.2649 175.308 TC 35 9 126
1973335S15161 1974 129 SP MM LOTTIE:NATALIE 1973-12-08 18:00:00 TS -18.1477 175.449 main 190 151 O_______P_P_O_ jtwc_sh SH081974 -17.9000 175.300 -1 -18.4591 175.663 47 985 -17.9794 175.280 4 -18.5000 175.700 TC 40 9 123
1973335S15161 1974 129 SP MM LOTTIE:NATALIE 1973-12-08 21:00:00 TS -18.3975 175.860 main 144 116 P_______P_P_P_ SH081974 -18.2074 175.720 -1 -18.6474 176.064 51 982 -18.2532 175.710 4 -18.6723 176.085 TC 45 10 120
1973335S15161 1974 129 SP MM LOTTIE:NATALIE 1973-12-09 00:00:00 TS -18.6200 176.320 55 980 wellington main 116 94 O_______O_O_O_ jtwc_sh SH081974 -18.5000 176.200 -1 -18.8000 176.500 55 980 -18.5000 176.200 4 -18.8000 176.500 TC 50 10 114
1973335S15161 1974 129 SP MM LOTTIE:NATALIE 1973-12-09 03:00:00 TS -18.7980 176.822 main 94 84 P_______P_P_P_ SH081974 -18.7223 176.720 -1 -18.9104 176.965 57 977 -18.7198 176.726 4 -18.9149 176.978 TC 55 11 108
1973335S15161 1974 129 SP MM LOTTIE:NATALIE 1973-12-09 06:00:00 TS -18.9392 177.376 main 81 78 O_______P_P_O_ jtwc_sh SH081974 -18.9000 177.300 -1 -18.9866 177.468 60 975 -18.9096 177.310 4 -19.0000 177.500 TC 60 11 104
1973335S15161 1974 129 SP MM LOTTIE:NATALIE 1973-12-09 09:00:00 TS -19.0602 177.965 main 89 89 P_______P_P_P_ SH081974 -19.0648 177.928 -1 -19.0445 178.012 62 972 -19.0696 177.939 4 -19.0572 178.020 TC 60 12 101
1973335S15161 1974 129 SP MM LOTTIE:NATALIE 1973-12-09 12:00:00 TS -19.1600 178.600 65 970 wellington main 109 109 O_______O_O_O_ jtwc_sh SH081974 -19.2000 178.600 -1 -19.1000 178.600 65 970 -19.2000 178.600 4 -19.1000 178.600 TC 60 13 98
1973335S15161 1974 129 SP MM LOTTIE:NATALIE 1973-12-09 15:00:00 TS -19.2395 179.274 main 138 138 P_______P_P_P_ SH081974 -19.3148 179.293 -1 -19.1466 179.233 66 968 -19.2790 179.269 4 -19.1426 179.285 TC 62 13 96
1973335S15161 1974 129 SP MM LOTTIE:NATALIE 1973-12-09 18:00:00 TS -19.3064 179.974 main 191 191 O_______P_P_O_ jtwc_sh SH081974 -19.4000 180.000 -1 -19.1974 179.907 67 967 -19.3344 179.965 4 -19.2000 180.000 TC 65 13 95
1973335S15161 1974 129 SP MM LOTTIE:NATALIE 1973-12-09 21:00:00 TS -19.3637 180.666 main 255 255 P_______P_P_P_ SH081974 -19.4347 -179.300 -1 -19.2745 -179.398 68 966 -19.3976 -179.322 4 -19.2771 -179.350 TC 65 13 97
1973335S15161 1974 129 SP MM LOTTIE:NATALIE 1973-12-10 00:00:00 TS -19.4600 181.360 70 965 wellington main 324 324 O_______O_O_O_ jtwc_sh SH081974 -19.5000 -178.600 -1 -19.4000 -178.700 70 965 -19.5000 -178.600 4 -19.4000 -178.700 TC 65 13 101
1973335S15161 1974 129 SP MM LOTTIE:NATALIE 1973-12-10 03:00:00 TS -19.6265 182.056 main 390 390 P_______P_P_P_ SH081974 -19.6696 -177.907 -1 -19.5743 -178.037 66 968 -19.6490 -177.869 4 -19.5699 -178.000 TC 62 14 106
1973335S15161 1974 129 SP MM LOTTIE:NATALIE 1973-12-10 06:00:00 TS -19.8491 182.759 main 454 454 O_______P_P_O_ jtwc_sh SH081974 -19.9000 -177.200 -1 -19.8010 -177.371 62 972 -19.8446 -177.134 4 -19.8000 -177.300 TC 60 14 110
1973335S15161 1974 129 SP MM LOTTIE:NATALIE 1973-12-10 09:00:00 TS -20.1004 183.471 main 529 529 P_______P_P_P_ SH081974 -20.1275 -176.442 -1 -20.0773 -176.695 58 976 -20.0928 -176.407 4 -20.0770 -176.657 TC 57 14 112
1973335S15161 1974 129 SP MM LOTTIE:NATALIE 1973-12-10 12:00:00 TS -20.4000 184.180 55 980 wellington main 606 606 O_______O_O_O_ jtwc_sh SH081974 -20.4000 -175.700 -1 -20.4000 -176.000 55 980 -20.4000 -175.700 4 -20.4000 -176.000 TC 55 14 115
1973335S15161 1974 129 SP MM LOTTIE:NATALIE 1973-12-10 15:00:00 TS -20.7137 184.870 main 683 683 P_______P_P_P_ SH081974 -20.7121 -175.035 -1 -20.7080 -175.262 51 982 -20.7089 -175.054 4 -20.7274 -175.265 TC 50 15 118
1973335S15161 1974 129 SP MM LOTTIE:NATALIE 1973-12-10 18:00:00 TS -21.0895 185.554 main 768 768 O_______P_P_O_ jtwc_sh SH081974 -21.1000 -174.400 -1 -21.0648 -174.505 47 985 -21.0825 -174.425 4 -21.1000 -174.500 TC 45 15 123
1973335S15161 1974 129 SP MM LOTTIE:NATALIE 1973-12-10 21:00:00 TS -21.5255 186.233 main 844 844 P_______P_P_P_ SH081974 -21.5469 -173.779 -1 -21.4892 -173.745 43 987 -21.5399 -173.784 4 -21.5047 -173.749 TC 37 16 127
1973335S15161 1974 129 SP MM LOTTIE:NATALIE 1973-12-11 00:00:00 TS -22.0600 186.940 40 990 wellington main 930 929 O_______O_O_O_ jtwc_sh SH081974 -22.1000 -173.100 -1 -22.0000 -173.000 40 990 -22.1000 -173.100 4 -22.0000 -173.000 TC 30 18 130
1973335S15161 1974 129 SP MM LOTTIE:NATALIE 1973-12-11 03:00:00 TS -22.6889 187.732 main 995 995 P_______P_P_P_ SH081974 -22.7476 -172.272 -1 -22.5971 -172.261 40 990 -22.7470 -172.302 4 -22.6049 -172.235 TC 30 20 133
1973335S15161 1974 129 SP MM LOTTIE:NATALIE 1973-12-11 06:00:00 TS -23.4148 188.540 main 1076 1076 O_______P_P_O_ jtwc_sh SH081974 -23.5000 -171.400 -1 -23.2797 -171.540 40 990 -23.4942 -171.458 4 -23.3000 -171.500 TC 30 21 136
1973335S15161 1974 129 SP MM LOTTIE:NATALIE 1973-12-11 09:00:00 TS -24.2016 189.317 main 1173 1173 P_______P_P_P_ SH081974 -24.3198 -170.570 -1 -24.0224 -170.848 40 990 -24.3190 -170.610 4 -24.0272 -170.819 TC 27 21 140
1973335S15161 1974 129 SP MM LOTTIE:NATALIE 1973-12-11 12:00:00 TS -25.0400 190.040 40 990 wellington main 1273 1273 O_______O_O_O_ jtwc_sh SH081974 -25.2000 -169.800 -1 -24.8000 -170.200 40 990 -25.2000 -169.800 4 -24.8000 -170.200 TC 25 21 144
1973335S15161 1974 129 SP MM LOTTIE:NATALIE 1973-12-11 15:00:00 TS -25.8723 190.664 main 1386 1386 P_______P_P_P_ SH081974 -26.0768 -169.133 -1 -25.5462 -169.699 40 990 -26.0694 -169.081 4 -25.5921 -169.634 TC 22 20 147
1973335S15161 1974 129 SP MM LOTTIE:NATALIE 1973-12-11 18:00:00 TS -26.7435 191.253 main 1487 1487 O_______P_P_O_ jtwc_sh SH081974 -27.0000 -168.500 -1 -26.3251 -169.227 40 990 -26.9927 -168.405 4 -26.4000 -169.100 TC 20 21 149
1973335S15161 1974 129 SP MM LOTTIE:NATALIE 1973-12-11 21:00:00 TS -27.6439 191.863 main 1600 1600 P_______P_P_P_ SH081974 -27.9698 -167.806 -1 -27.1417 -168.693 40 990 -27.9696 -167.752 4 -27.1685 -168.629 TC 20 22 148
1973335S15161 1974 129 SP MM LOTTIE:NATALIE 1973-12-12 00:00:00 TS -28.6000 192.540 40 990 wellington main 1639 1626 O_______O_O_O_ jtwc_sh SH081974 -29.0000 -167.100 -1 -28.0000 -168.000 40 990 -29.0000 -167.100 4 -28.0000 -168.000 TC 20 24 147
1973335S15161 1974 129 SP MM LOTTIE:NATALIE 1973-12-12 03:00:00 TS -29.6255 193.338 main 1627 1622 P_______P_P_P_ SH081974 -30.0772 -166.399 -1 -28.8992 -167.074 37 991 -30.0810 -166.431 4 -28.9927 -167.006 TC 17 26 145
1973335S15161 1974 129 SP MM LOTTIE:NATALIE 1973-12-12 06:00:00 TS -30.6855 194.223 main 1627 1627 O_______P_P_O_ jtwc_sh SH081974 -31.2000 -165.700 -1 -29.8262 -165.944 35 993 -31.2011 -165.742 4 -30.0000 -165.800 TC 15 26 144
1973335S15161 1974 129 SP MM LOTTIE:NATALIE 1973-12-12 09:00:00 TS -31.7388 195.148 main 1643 1643 P_______P_P_P_ SH081974 -32.3457 -165.004 -1 -30.7648 -164.666 32 995 -32.3458 -165.031 4 -30.8917 -164.555 TC 15 26 143
1973335S15161 1974 129 SP MM LOTTIE:NATALIE 1973-12-12 12:00:00 TS -32.7800 196.100 30 997 wellington main 1673 O_______O_O_O_ jtwc_sh SH081974 -33.5000 -164.300 -1 -31.7000 -163.300 30 997 -33.5000 -164.300 6 -31.7000 -163.300 TC 15 26 142

Digital Typhoon Data and Search

About IBTrACS Database

This database is a web-friendly format of International Best Track Archive for Climate Stewardship (IBTrACS), a global best track data archive curated by NOAA dating back to 1842.

Updated: 2021-10-19